Accueil
METAR-TAF:

METAR-TAF

Aéroports :

Aéroport international Mehrabad

Téhéran, Iran

latitude: 35-41N, longitude: 051-21E, altitude: 1204 m

Observation

Le bulletin a été fait il y a 38 minutes, à 17:30 UTC
Vent 6 kt de nord/nord-ouest
Température 31°C
Humidité 11%
Pression 1010 hPa
Visibilité 10 km ou plus
pas de nuages en-dessous de 1500 mètres et pas de cumulonimbus.

METAR: OIII 191730Z 34006KT CAVOK 31/M03 Q1009 A2983

Heure: 22:38 (18:08 UTC)

Prévision

Le bulletin a été fait il y a 1 heure et 8 minutes, à 17:00 UTC
Prévision valable du 19 à 18 UTC au 20 à 24 UTC
Vent 8 kt de ouest/sud-ouest
Visibilité 10 km ou plus
pas de nuages en-dessous de 1500 mètres et pas de cumulonimbus.
Temporairement
du 19 à 18 UTC au 19 à 21 UTC
Vent 16 kt de nord-ouest
Temporairement
du 20 à 06 UTC au 20 à 11 UTC
Vent 16 kt de sud/sud-est

TAF: OIII 191700Z 1918/2024 24004MPS CAVOK TEMPO 1918/1921 32008MPS TEMPO 2006/2011 15008MPS

Observations et prévisions météorologiques de plus de 4000 aéroports (messages METAR et TAF).

Les stations disponibles sont représentées par des disques jaunes et rouges sur la carte.

Passer la souris dessus pour voir le nom de la station.

Cliquer dessus pour voir les observations et prévisions météorologiques.

Pour changer de carte: cliquez sur les boutons verts avec une croix noire pour zoomer, sur le bouton vert avec un tiret pour effectuer un zoom arrière, ou sur les flèches vertes pour les cartes adjacentes.


METAR-TAF: